This is the latest recevied weather packets stored in our database for station/object LRSB. If no packets are shown the sender has not sent any weather packets the latest 10 day(s).
| Time | Temp. | Humidity | Pressure | Rain* | Wind** | Luminosity | Snow |
|---|---|---|---|---|---|---|---|
| 1777727891 | 13.89° C | 39% | 1021 hPa | - | - | - | - |
| 1777726992 | 13.89° C | 39% | 1021 hPa | - | - | - | - |
| 1777726092 | 13.89° C | 39% | 1022 hPa | - | - | - | - |
| 1777725191 | 13.89° C | 39% | 1022 hPa | - | - | - | - |
| 1777724291 | 13.89° C | 41% | 1022 hPa | - | - | - | - |
| 1777723399 | 13.89° C | 41% | 1022 hPa | - | - | - | - |
| 1777722491 | 12.22° C | 41% | 1022 hPa | - | - | - | - |
| 1777721591 | 12.22° C | 41% | 1022 hPa | - | - | - | - |
| 1777720691 | 12.78° C | 38% | 1022 hPa | - | - | - | - |
| 1777719791 | 12.78° C | 38% | 1022 hPa | - | - | - | - |
| 1777718891 | 12.22° C | 41% | 1022 hPa | - | - | - | - |
| 1777717991 | 12.22° C | 41% | 1022 hPa | - | - | - | - |
| 1777717088 | 12.22° C | 41% | 1023 hPa | - | - | - | - |
| 1777716191 | 12.22° C | 41% | 1023 hPa | - | - | - | - |
| 1777715291 | 11.11° C | 47% | 1023 hPa | - | - | - | - |
| 1777714467 | 11.11° C | 47% | 1023 hPa | - | - | - | - |
| 1777713491 | 11.11° C | 50% | 1023 hPa | - | - | - | - |
| 1777712591 | 11.11° C | 50% | 1023 hPa | - | - | - | - |
| 1777711698 | 10° C | 54% | 1023 hPa | - | - | - | - |
| 1777710791 | 10° C | 54% | 1023 hPa | - | - | - | - |
| 1777709891 | 8.89° C | 54% | 1023 hPa | - | - | - | - |
| 1777708991 | 8.89° C | 54% | 1023 hPa | - | - | - | - |
| 1777708091 | 8.89° C | 50% | 1023 hPa | - | - | - | - |
| 1777707191 | 8.89° C | 50% | 1023 hPa | - | - | - | - |
| 1777706291 | 8.89° C | 50% | 1023 hPa | - | - | - | - |
* Rain since midnight (hover to see other rain measurements)
** Current wind speed in m/s (hover to see current wind gust speed)